sensor_id;sensor_type;location;lat;lon;timestamp;P1;durP1;ratioP1;P2;durP2;ratioP2
7031;SDS011;3557;48.880;8.328;2023-01-15T00:01:20;0.30;;;0.30;;
7031;SDS011;3557;48.880;8.328;2023-01-15T00:03:50;0.32;;;0.32;;
7031;SDS011;3557;48.880;8.328;2023-01-15T00:06:20;0.30;;;0.30;;
7031;SDS011;3557;48.880;8.328;2023-01-15T00:08:48;0.28;;;0.28;;
7031;SDS011;3557;48.880;8.328;2023-01-15T00:11:16;0.40;;;0.32;;
7031;SDS011;3557;48.880;8.328;2023-01-15T00:13:44;0.32;;;0.32;;
7031;SDS011;3557;48.880;8.328;2023-01-15T00:16:12;0.40;;;0.40;;
7031;SDS011;3557;48.880;8.328;2023-01-15T00:18:42;0.40;;;0.40;;
7031;SDS011;3557;48.880;8.328;2023-01-15T00:21:14;0.22;;;0.20;;
7031;SDS011;3557;48.880;8.328;2023-01-15T00:23:43;0.38;;;0.38;;
7031;SDS011;3557;48.880;8.328;2023-01-15T00:26:31;0.40;;;0.30;;
7031;SDS011;3557;48.880;8.328;2023-01-15T00:29:17;0.60;;;0.40;;
7031;SDS011;3557;48.880;8.328;2023-01-15T00:31:50;0.20;;;0.20;;
7031;SDS011;3557;48.880;8.328;2023-01-15T00:34:19;0.47;;;0.47;;
7031;SDS011;3557;48.880;8.328;2023-01-15T00:36:47;0.38;;;0.38;;
7031;SDS011;3557;48.880;8.328;2023-01-15T00:39:16;0.63;;;0.55;;
7031;SDS011;3557;48.880;8.328;2023-01-15T00:41:45;0.22;;;0.22;;
7031;SDS011;3557;48.880;8.328;2023-01-15T00:44:13;0.10;;;0.10;;
7031;SDS011;3557;48.880;8.328;2023-01-15T00:46:41;0.38;;;0.38;;
7031;SDS011;3557;48.880;8.328;2023-01-15T00:49:09;0.40;;;0.38;;
7031;SDS011;3557;48.880;8.328;2023-01-15T00:51:36;2.22;;;0.30;;
7031;SDS011;3557;48.880;8.328;2023-01-15T00:54:03;0.50;;;0.50;;
7031;SDS011;3557;48.880;8.328;2023-01-15T00:56:33;0.55;;;0.50;;
7031;SDS011;3557;48.880;8.328;2023-01-15T00:59:01;0.50;;;0.40;;
7031;SDS011;3557;48.880;8.328;2023-01-15T01:01:30;0.38;;;0.30;;
7031;SDS011;3557;48.880;8.328;2023-01-15T01:03:58;0.35;;;0.35;;
7031;SDS011;3557;48.880;8.328;2023-01-15T01:06:26;0.30;;;0.30;;
7031;SDS011;3557;48.880;8.328;2023-01-15T01:08:53;0.40;;;0.30;;
7031;SDS011;3557;48.880;8.328;2023-01-15T01:11:22;0.38;;;0.38;;
7031;SDS011;3557;48.880;8.328;2023-01-15T01:13:54;0.35;;;0.35;;
7031;SDS011;3557;48.880;8.328;2023-01-15T01:16:22;0.30;;;0.30;;
7031;SDS011;3557;48.880;8.328;2023-01-15T01:18:54;0.28;;;0.28;;
7031;SDS011;3557;48.880;8.328;2023-01-15T01:21:23;0.93;;;0.40;;
7031;SDS011;3557;48.880;8.328;2023-01-15T01:23:51;1.02;;;0.90;;
7031;SDS011;3557;48.880;8.328;2023-01-15T01:26:19;0.30;;;0.20;;
7031;SDS011;3557;48.880;8.328;2023-01-15T01:28:49;0.45;;;0.45;;
7031;SDS011;3557;48.880;8.328;2023-01-15T01:31:19;0.10;;;0.10;;
7031;SDS011;3557;48.880;8.328;2023-01-15T01:33:47;0.50;;;0.50;;
7031;SDS011;3557;48.880;8.328;2023-01-15T01:36:14;0.40;;;0.30;;
7031;SDS011;3557;48.880;8.328;2023-01-15T01:38:42;0.82;;;0.40;;
7031;SDS011;3557;48.880;8.328;2023-01-15T01:41:13;0.38;;;0.38;;
7031;SDS011;3557;48.880;8.328;2023-01-15T01:43:51;0.20;;;0.20;;
7031;SDS011;3557;48.880;8.328;2023-01-15T01:46:23;0.40;;;0.20;;
7031;SDS011;3557;48.880;8.328;2023-01-15T01:48:52;0.30;;;0.30;;
7031;SDS011;3557;48.880;8.328;2023-01-15T01:51:23;0.10;;;0.10;;
7031;SDS011;3557;48.880;8.328;2023-01-15T01:53:54;0.95;;;0.20;;
7031;SDS011;3557;48.880;8.328;2023-01-15T01:56:22;0.45;;;0.35;;
7031;SDS011;3557;48.880;8.328;2023-01-15T01:58:49;0.93;;;0.30;;
7031;SDS011;3557;48.880;8.328;2023-01-15T02:01:19;0.08;;;0.08;;
7031;SDS011;3557;48.880;8.328;2023-01-15T02:03:50;0.20;;;0.20;;
7031;SDS011;3557;48.880;8.328;2023-01-15T02:06:18;0.30;;;0.30;;
7031;SDS011;3557;48.880;8.328;2023-01-15T02:08:45;0.65;;;0.28;;
7031;SDS011;3557;48.880;8.328;2023-01-15T02:11:15;0.35;;;0.35;;
7031;SDS011;3557;48.880;8.328;2023-01-15T02:13:49;0.30;;;0.30;;
7031;SDS011;3557;48.880;8.328;2023-01-15T02:16:24;0.17;;;0.17;;
7031;SDS011;3557;48.880;8.328;2023-01-15T02:18:55;0.20;;;0.20;;
7031;SDS011;3557;48.880;8.328;2023-01-15T02:21:38;0.80;;;0.28;;
7031;SDS011;3557;48.880;8.328;2023-01-15T02:24:13;0.10;;;0.10;;
7031;SDS011;3557;48.880;8.328;2023-01-15T02:27:09;1.02;;;0.40;;
7031;SDS011;3557;48.880;8.328;2023-01-15T02:29:47;0.28;;;0.28;;
7031;SDS011;3557;48.880;8.328;2023-01-15T02:32:22;0.10;;;0.10;;
7031;SDS011;3557;48.880;8.328;2023-01-15T02:35:00;0.20;;;0.20;;
7031;SDS011;3557;48.880;8.328;2023-01-15T02:37:32;0.20;;;0.17;;
7031;SDS011;3557;48.880;8.328;2023-01-15T02:40:05;0.10;;;0.10;;
7031;SDS011;3557;48.880;8.328;2023-01-15T02:42:35;0.47;;;0.47;;
7031;SDS011;3557;48.880;8.328;2023-01-15T02:45:04;0.10;;;0.10;;
7031;SDS011;3557;48.880;8.328;2023-01-15T02:47:33;0.60;;;0.60;;
7031;SDS011;3557;48.880;8.328;2023-01-15T02:50:05;0.20;;;0.20;;
7031;SDS011;3557;48.880;8.328;2023-01-15T02:52:40;0.70;;;0.30;;
7031;SDS011;3557;48.880;8.328;2023-01-15T02:55:11;0.20;;;0.20;;
7031;SDS011;3557;48.880;8.328;2023-01-15T02:57:45;0.20;;;0.20;;
7031;SDS011;3557;48.880;8.328;2023-01-15T03:00:16;2.10;;;0.88;;
7031;SDS011;3557;48.880;8.328;2023-01-15T03:02:48;0.10;;;0.10;;
7031;SDS011;3557;48.880;8.328;2023-01-15T03:05:19;0.10;;;0.10;;
7031;SDS011;3557;48.880;8.328;2023-01-15T03:07:51;0.20;;;0.20;;
7031;SDS011;3557;48.880;8.328;2023-01-15T03:10:22;0.20;;;0.20;;
7031;SDS011;3557;48.880;8.328;2023-01-15T03:13:00;1.25;;;0.32;;
7031;SDS011;3557;48.880;8.328;2023-01-15T03:15:51;0.20;;;0.20;;
7031;SDS011;3557;48.880;8.328;2023-01-15T03:18:43;0.30;;;0.25;;
7031;SDS011;3557;48.880;8.328;2023-01-15T03:21:16;0.32;;;0.32;;
7031;SDS011;3557;48.880;8.328;2023-01-15T03:23:51;0.65;;;0.38;;
7031;SDS011;3557;48.880;8.328;2023-01-15T03:26:23;0.30;;;0.20;;
7031;SDS011;3557;48.880;8.328;2023-01-15T03:28:53;0.40;;;0.40;;
7031;SDS011;3557;48.880;8.328;2023-01-15T03:31:22;0.45;;;0.45;;
7031;SDS011;3557;48.880;8.328;2023-01-15T03:33:49;0.32;;;0.30;;
7031;SDS011;3557;48.880;8.328;2023-01-15T03:36:19;0.70;;;0.45;;
7031;SDS011;3557;48.880;8.328;2023-01-15T03:38:48;0.38;;;0.22;;
7031;SDS011;3557;48.880;8.328;2023-01-15T03:41:31;0.32;;;0.32;;
7031;SDS011;3557;48.880;8.328;2023-01-15T03:44:13;0.30;;;0.30;;
7031;SDS011;3557;48.880;8.328;2023-01-15T03:46:56;0.17;;;0.17;;
7031;SDS011;3557;48.880;8.328;2023-01-15T03:49:37;0.30;;;0.30;;
7031;SDS011;3557;48.880;8.328;2023-01-15T03:52:19;0.65;;;0.20;;
7031;SDS011;3557;48.880;8.328;2023-01-15T03:54:56;0.30;;;0.30;;
7031;SDS011;3557;48.880;8.328;2023-01-15T03:57:33;0.30;;;0.30;;
7031;SDS011;3557;48.880;8.328;2023-01-15T04:00:06;0.40;;;0.20;;
7031;SDS011;3557;48.880;8.328;2023-01-15T04:02:40;0.22;;;0.22;;
7031;SDS011;3557;48.880;8.328;2023-01-15T04:05:09;1.30;;;0.30;;
7031;SDS011;3557;48.880;8.328;2023-01-15T04:07:37;0.13;;;0.13;;
7031;SDS011;3557;48.880;8.328;2023-01-15T04:10:07;0.80;;;0.55;;
7031;SDS011;3557;48.880;8.328;2023-01-15T04:12:36;0.20;;;0.20;;
7031;SDS011;3557;48.880;8.328;2023-01-15T04:15:10;0.25;;;0.22;;
7031;SDS011;3557;48.880;8.328;2023-01-15T04:17:38;0.20;;;0.20;;
7031;SDS011;3557;48.880;8.328;2023-01-15T04:20:06;0.10;;;0.10;;
7031;SDS011;3557;48.880;8.328;2023-01-15T04:22:39;0.60;;;0.10;;
7031;SDS011;3557;48.880;8.328;2023-01-15T04:25:06;0.13;;;0.13;;
7031;SDS011;3557;48.880;8.328;2023-01-15T04:27:35;0.43;;;0.10;;
7031;SDS011;3557;48.880;8.328;2023-01-15T04:30:03;2.53;;;0.22;;
7031;SDS011;3557;48.880;8.328;2023-01-15T04:32:32;0.10;;;0.10;;
7031;SDS011;3557;48.880;8.328;2023-01-15T04:35:00;0.20;;;0.20;;
7031;SDS011;3557;48.880;8.328;2023-01-15T04:37:27;0.20;;;0.20;;
7031;SDS011;3557;48.880;8.328;2023-01-15T04:39:55;0.57;;;0.43;;
7031;SDS011;3557;48.880;8.328;2023-01-15T04:42:22;0.00;;;0.00;;
7031;SDS011;3557;48.880;8.328;2023-01-15T04:45:07;0.00;;;0.00;;
7031;SDS011;3557;48.880;8.328;2023-01-15T04:47:37;0.07;;;0.07;;
7031;SDS011;3557;48.880;8.328;2023-01-15T04:50:04;0.77;;;0.20;;
7031;SDS011;3557;48.880;8.328;2023-01-15T04:52:33;0.23;;;0.23;;
7031;SDS011;3557;48.880;8.328;2023-01-15T04:55:00;0.20;;;0.20;;
7031;SDS011;3557;48.880;8.328;2023-01-15T04:57:28;0.30;;;0.30;;
7031;SDS011;3557;48.880;8.328;2023-01-15T04:59:55;0.47;;;0.43;;
7031;SDS011;3557;48.880;8.328;2023-01-15T05:02:23;0.93;;;0.20;;
7031;SDS011;3557;48.880;8.328;2023-01-15T05:04:52;0.10;;;0.10;;
7031;SDS011;3557;48.880;8.328;2023-01-15T05:07:19;0.20;;;0.20;;
7031;SDS011;3557;48.880;8.328;2023-01-15T05:09:47;0.20;;;0.20;;
7031;SDS011;3557;48.880;8.328;2023-01-15T05:12:17;0.30;;;0.30;;
7031;SDS011;3557;48.880;8.328;2023-01-15T05:14:45;0.27;;;0.27;;
7031;SDS011;3557;48.880;8.328;2023-01-15T05:17:12;0.13;;;0.13;;
7031;SDS011;3557;48.880;8.328;2023-01-15T05:19:40;0.20;;;0.20;;
7031;SDS011;3557;48.880;8.328;2023-01-15T05:22:09;1.67;;;0.30;;
7031;SDS011;3557;48.880;8.328;2023-01-15T05:24:36;0.60;;;0.30;;
7031;SDS011;3557;48.880;8.328;2023-01-15T05:27:04;0.20;;;0.20;;
7031;SDS011;3557;48.880;8.328;2023-01-15T05:29:31;0.20;;;0.20;;
7031;SDS011;3557;48.880;8.328;2023-01-15T05:32:01;1.03;;;0.47;;
7031;SDS011;3557;48.880;8.328;2023-01-15T05:34:29;0.30;;;0.30;;
7031;SDS011;3557;48.880;8.328;2023-01-15T05:36:56;0.33;;;0.30;;
7031;SDS011;3557;48.880;8.328;2023-01-15T05:39:25;0.10;;;0.10;;
7031;SDS011;3557;48.880;8.328;2023-01-15T05:41:52;0.20;;;0.20;;
7031;SDS011;3557;48.880;8.328;2023-01-15T05:44:40;0.20;;;0.20;;
7031;SDS011;3557;48.880;8.328;2023-01-15T05:47:27;0.23;;;0.23;;
7031;SDS011;3557;48.880;8.328;2023-01-15T05:50:16;0.10;;;0.10;;
7031;SDS011;3557;48.880;8.328;2023-01-15T05:53:05;0.30;;;0.30;;
7031;SDS011;3557;48.880;8.328;2023-01-15T05:55:34;0.73;;;0.43;;
7031;SDS011;3557;48.880;8.328;2023-01-15T05:58:01;0.30;;;0.30;;
7031;SDS011;3557;48.880;8.328;2023-01-15T06:00:29;0.20;;;0.20;;
7031;SDS011;3557;48.880;8.328;2023-01-15T06:02:56;0.20;;;0.20;;
7031;SDS011;3557;48.880;8.328;2023-01-15T06:05:23;0.17;;;0.17;;
7031;SDS011;3557;48.880;8.328;2023-01-15T06:07:51;0.13;;;0.13;;
7031;SDS011;3557;48.880;8.328;2023-01-15T06:10:18;0.20;;;0.20;;
7031;SDS011;3557;48.880;8.328;2023-01-15T06:12:47;0.20;;;0.20;;
7031;SDS011;3557;48.880;8.328;2023-01-15T06:15:14;0.30;;;0.30;;
7031;SDS011;3557;48.880;8.328;2023-01-15T06:17:42;0.63;;;0.30;;
7031;SDS011;3557;48.880;8.328;2023-01-15T06:20:09;0.30;;;0.30;;
7031;SDS011;3557;48.880;8.328;2023-01-15T06:22:38;0.30;;;0.30;;
7031;SDS011;3557;48.880;8.328;2023-01-15T06:25:05;1.50;;;0.20;;
7031;SDS011;3557;48.880;8.328;2023-01-15T06:27:33;0.30;;;0.30;;
7031;SDS011;3557;48.880;8.328;2023-01-15T06:30:02;0.20;;;0.20;;
7031;SDS011;3557;48.880;8.328;2023-01-15T06:32:30;0.30;;;0.20;;
7031;SDS011;3557;48.880;8.328;2023-01-15T06:34:59;0.20;;;0.20;;
7031;SDS011;3557;48.880;8.328;2023-01-15T06:37:26;0.30;;;0.30;;
7031;SDS011;3557;48.880;8.328;2023-01-15T06:39:54;0.20;;;0.20;;
7031;SDS011;3557;48.880;8.328;2023-01-15T06:42:21;0.20;;;0.20;;
7031;SDS011;3557;48.880;8.328;2023-01-15T06:45:08;0.40;;;0.33;;
7031;SDS011;3557;48.880;8.328;2023-01-15T06:47:54;0.20;;;0.20;;
7031;SDS011;3557;48.880;8.328;2023-01-15T06:50:22;1.70;;;0.40;;
7031;SDS011;3557;48.880;8.328;2023-01-15T06:52:50;0.20;;;0.20;;
7031;SDS011;3557;48.880;8.328;2023-01-15T06:55:18;0.47;;;0.20;;
7031;SDS011;3557;48.880;8.328;2023-01-15T06:57:47;0.30;;;0.30;;
7031;SDS011;3557;48.880;8.328;2023-01-15T07:00:16;0.30;;;0.30;;
7031;SDS011;3557;48.880;8.328;2023-01-15T07:02:44;0.33;;;0.33;;
7031;SDS011;3557;48.880;8.328;2023-01-15T07:05:12;0.23;;;0.17;;
7031;SDS011;3557;48.880;8.328;2023-01-15T07:07:39;0.83;;;0.83;;
7031;SDS011;3557;48.880;8.328;2023-01-15T07:10:07;0.30;;;0.30;;
7031;SDS011;3557;48.880;8.328;2023-01-15T07:12:36;0.43;;;0.30;;
7031;SDS011;3557;48.880;8.328;2023-01-15T07:15:04;0.27;;;0.27;;
7031;SDS011;3557;48.880;8.328;2023-01-15T07:17:33;0.20;;;0.20;;
7031;SDS011;3557;48.880;8.328;2023-01-15T07:20:01;0.33;;;0.33;;
7031;SDS011;3557;48.880;8.328;2023-01-15T07:22:29;0.50;;;0.37;;
7031;SDS011;3557;48.880;8.328;2023-01-15T07:24:57;0.20;;;0.20;;
7031;SDS011;3557;48.880;8.328;2023-01-15T07:27:24;0.67;;;0.30;;
7031;SDS011;3557;48.880;8.328;2023-01-15T07:29:51;0.37;;;0.37;;
7031;SDS011;3557;48.880;8.328;2023-01-15T07:32:18;2.07;;;0.43;;
7031;SDS011;3557;48.880;8.328;2023-01-15T07:34:47;0.20;;;0.20;;
7031;SDS011;3557;48.880;8.328;2023-01-15T07:37:17;0.50;;;0.50;;
7031;SDS011;3557;48.880;8.328;2023-01-15T07:39:44;0.60;;;0.60;;
7031;SDS011;3557;48.880;8.328;2023-01-15T07:42:12;0.20;;;0.20;;
7031;SDS011;3557;48.880;8.328;2023-01-15T07:44:56;0.20;;;0.20;;
7031;SDS011;3557;48.880;8.328;2023-01-15T07:47:41;0.63;;;0.63;;
7031;SDS011;3557;48.880;8.328;2023-01-15T07:50:28;0.20;;;0.20;;
7031;SDS011;3557;48.880;8.328;2023-01-15T07:52:55;1.00;;;0.80;;
7031;SDS011;3557;48.880;8.328;2023-01-15T07:55:23;0.10;;;0.10;;
7031;SDS011;3557;48.880;8.328;2023-01-15T07:57:50;0.10;;;0.10;;
7031;SDS011;3557;48.880;8.328;2023-01-15T08:00:19;0.10;;;0.10;;
7031;SDS011;3557;48.880;8.328;2023-01-15T08:02:48;0.30;;;0.20;;
7031;SDS011;3557;48.880;8.328;2023-01-15T08:05:16;0.87;;;0.30;;
7031;SDS011;3557;48.880;8.328;2023-01-15T08:07:45;0.20;;;0.20;;
7031;SDS011;3557;48.880;8.328;2023-01-15T08:10:14;0.70;;;0.27;;
7031;SDS011;3557;48.880;8.328;2023-01-15T08:12:41;0.27;;;0.27;;
7031;SDS011;3557;48.880;8.328;2023-01-15T08:15:26;2.53;;;0.37;;
7031;SDS011;3557;48.880;8.328;2023-01-15T08:17:55;0.27;;;0.27;;
7031;SDS011;3557;48.880;8.328;2023-01-15T08:20:24;0.20;;;0.20;;
7031;SDS011;3557;48.880;8.328;2023-01-15T08:22:53;0.67;;;0.37;;
7031;SDS011;3557;48.880;8.328;2023-01-15T08:25:21;0.30;;;0.30;;
7031;SDS011;3557;48.880;8.328;2023-01-15T08:27:52;0.30;;;0.30;;
7031;SDS011;3557;48.880;8.328;2023-01-15T08:30:21;0.37;;;0.20;;
7031;SDS011;3557;48.880;8.328;2023-01-15T08:32:50;0.37;;;0.30;;
7031;SDS011;3557;48.880;8.328;2023-01-15T08:35:18;0.30;;;0.30;;
7031;SDS011;3557;48.880;8.328;2023-01-15T08:37:45;0.20;;;0.20;;
7031;SDS011;3557;48.880;8.328;2023-01-15T08:40:14;0.20;;;0.20;;
7031;SDS011;3557;48.880;8.328;2023-01-15T08:42:42;0.47;;;0.30;;
7031;SDS011;3557;48.880;8.328;2023-01-15T08:45:10;0.90;;;0.40;;
7031;SDS011;3557;48.880;8.328;2023-01-15T08:47:38;0.30;;;0.30;;
7031;SDS011;3557;48.880;8.328;2023-01-15T08:50:06;0.63;;;0.20;;
7031;SDS011;3557;48.880;8.328;2023-01-15T08:52:35;0.40;;;0.40;;
7031;SDS011;3557;48.880;8.328;2023-01-15T08:55:03;0.37;;;0.37;;
7031;SDS011;3557;48.880;8.328;2023-01-15T08:57:34;0.40;;;0.40;;
7031;SDS011;3557;48.880;8.328;2023-01-15T09:00:03;0.47;;;0.40;;
7031;SDS011;3557;48.880;8.328;2023-01-15T09:02:33;0.40;;;0.40;;
7031;SDS011;3557;48.880;8.328;2023-01-15T09:05:01;0.43;;;0.40;;
7031;SDS011;3557;48.880;8.328;2023-01-15T09:07:28;0.97;;;0.30;;
7031;SDS011;3557;48.880;8.328;2023-01-15T09:09:56;2.37;;;0.23;;
7031;SDS011;3557;48.880;8.328;2023-01-15T09:12:24;0.40;;;0.40;;
7031;SDS011;3557;48.880;8.328;2023-01-15T09:14:52;0.20;;;0.20;;
7031;SDS011;3557;48.880;8.328;2023-01-15T09:17:20;0.37;;;0.37;;
7031;SDS011;3557;48.880;8.328;2023-01-15T09:19:47;0.20;;;0.20;;
7031;SDS011;3557;48.880;8.328;2023-01-15T09:22:14;0.20;;;0.20;;
7031;SDS011;3557;48.880;8.328;2023-01-15T09:24:42;0.30;;;0.30;;
7031;SDS011;3557;48.880;8.328;2023-01-15T09:27:09;0.87;;;0.50;;
7031;SDS011;3557;48.880;8.328;2023-01-15T09:29:37;0.27;;;0.27;;
7031;SDS011;3557;48.880;8.328;2023-01-15T09:32:06;0.50;;;0.50;;
7031;SDS011;3557;48.880;8.328;2023-01-15T09:34:34;0.30;;;0.30;;
7031;SDS011;3557;48.880;8.328;2023-01-15T09:37:02;0.40;;;0.40;;
7031;SDS011;3557;48.880;8.328;2023-01-15T09:39:29;0.40;;;0.40;;
7031;SDS011;3557;48.880;8.328;2023-01-15T09:42:00;1.80;;;0.70;;
7031;SDS011;3557;48.880;8.328;2023-01-15T09:45:04;0.40;;;0.40;;
7031;SDS011;3557;48.880;8.328;2023-01-15T09:47:44;0.90;;;0.40;;
7031;SDS011;3557;48.880;8.328;2023-01-15T09:50:23;0.23;;;0.23;;
7031;SDS011;3557;48.880;8.328;2023-01-15T09:53:04;0.60;;;0.60;;
7031;SDS011;3557;48.880;8.328;2023-01-15T09:55:44;0.50;;;0.50;;
7031;SDS011;3557;48.880;8.328;2023-01-15T09:58:14;0.40;;;0.40;;
7031;SDS011;3557;48.880;8.328;2023-01-15T10:00:44;0.40;;;0.40;;
7031;SDS011;3557;48.880;8.328;2023-01-15T10:03:19;0.50;;;0.50;;
7031;SDS011;3557;48.880;8.328;2023-01-15T10:05:54;0.60;;;0.60;;
7031;SDS011;3557;48.880;8.328;2023-01-15T10:08:29;0.20;;;0.20;;
7031;SDS011;3557;48.880;8.328;2023-01-15T10:11:00;0.50;;;0.50;;
7031;SDS011;3557;48.880;8.328;2023-01-15T10:13:30;0.30;;;0.30;;
7031;SDS011;3557;48.880;8.328;2023-01-15T10:16:04;0.20;;;0.20;;
7031;SDS011;3557;48.880;8.328;2023-01-15T10:18:34;0.20;;;0.20;;
7031;SDS011;3557;48.880;8.328;2023-01-15T10:21:09;1.90;;;0.47;;
7031;SDS011;3557;48.880;8.328;2023-01-15T10:23:46;1.20;;;0.33;;
7031;SDS011;3557;48.880;8.328;2023-01-15T10:26:25;2.43;;;1.40;;
7031;SDS011;3557;48.880;8.328;2023-01-15T10:28:59;1.50;;;1.03;;
7031;SDS011;3557;48.880;8.328;2023-01-15T10:31:33;0.77;;;0.73;;
7031;SDS011;3557;48.880;8.328;2023-01-15T10:37:35;0.20;;;0.20;;
7031;SDS011;3557;48.880;8.328;2023-01-15T10:40:17;0.67;;;0.40;;
7031;SDS011;3557;48.880;8.328;2023-01-15T10:42:56;0.60;;;0.43;;
7031;SDS011;3557;48.880;8.328;2023-01-15T10:45:29;0.97;;;0.60;;
7031;SDS011;3557;48.880;8.328;2023-01-15T10:47:58;1.23;;;0.60;;
7031;SDS011;3557;48.880;8.328;2023-01-15T10:50:31;0.40;;;0.40;;
7031;SDS011;3557;48.880;8.328;2023-01-15T10:53:01;0.70;;;0.70;;
7031;SDS011;3557;48.880;8.328;2023-01-15T10:55:33;1.33;;;0.77;;
7031;SDS011;3557;48.880;8.328;2023-01-15T10:58:05;0.70;;;0.70;;
7031;SDS011;3557;48.880;8.328;2023-01-15T11:00:39;0.50;;;0.50;;
7031;SDS011;3557;48.880;8.328;2023-01-15T11:03:09;0.30;;;0.30;;
7031;SDS011;3557;48.880;8.328;2023-01-15T11:05:45;5.00;;;2.50;;
7031;SDS011;3557;48.880;8.328;2023-01-15T11:08:15;2.13;;;0.50;;
7031;SDS011;3557;48.880;8.328;2023-01-15T11:10:49;0.30;;;0.30;;
7031;SDS011;3557;48.880;8.328;2023-01-15T11:13:19;0.60;;;0.60;;
7031;SDS011;3557;48.880;8.328;2023-01-15T11:16:10;3.03;;;1.20;;
7031;SDS011;3557;48.880;8.328;2023-01-15T11:19:04;2.70;;;1.60;;
7031;SDS011;3557;48.880;8.328;2023-01-15T11:22:07;2.77;;;2.17;;
7031;SDS011;3557;48.880;8.328;2023-01-15T11:24:36;2.33;;;1.47;;
7031;SDS011;3557;48.880;8.328;2023-01-15T11:27:12;1.60;;;1.47;;
7031;SDS011;3557;48.880;8.328;2023-01-15T11:29:42;0.57;;;0.57;;
7031;SDS011;3557;48.880;8.328;2023-01-15T11:32:23;0.97;;;0.97;;
7031;SDS011;3557;48.880;8.328;2023-01-15T11:34:56;2.43;;;1.27;;
7031;SDS011;3557;48.880;8.328;2023-01-15T11:37:26;1.23;;;1.13;;
7031;SDS011;3557;48.880;8.328;2023-01-15T11:39:54;1.50;;;1.10;;
7031;SDS011;3557;48.880;8.328;2023-01-15T11:42:28;2.83;;;1.23;;
7031;SDS011;3557;48.880;8.328;2023-01-15T11:45:14;1.23;;;0.77;;
7031;SDS011;3557;48.880;8.328;2023-01-15T11:48:00;0.97;;;0.53;;
7031;SDS011;3557;48.880;8.328;2023-01-15T11:50:53;1.37;;;0.80;;
7031;SDS011;3557;48.880;8.328;2023-01-15T11:53:27;1.53;;;1.00;;
7031;SDS011;3557;48.880;8.328;2023-01-15T11:55:59;0.70;;;0.70;;
7031;SDS011;3557;48.880;8.328;2023-01-15T11:58:31;1.90;;;0.80;;
7031;SDS011;3557;48.880;8.328;2023-01-15T12:01:04;1.40;;;0.90;;
7031;SDS011;3557;48.880;8.328;2023-01-15T12:03:33;0.70;;;0.70;;
7031;SDS011;3557;48.880;8.328;2023-01-15T12:06:03;1.20;;;0.87;;
7031;SDS011;3557;48.880;8.328;2023-01-15T12:08:42;1.50;;;0.70;;
7031;SDS011;3557;48.880;8.328;2023-01-15T12:14:18;0.93;;;0.67;;
7031;SDS011;3557;48.880;8.328;2023-01-15T12:17:28;1.40;;;0.60;;
7031;SDS011;3557;48.880;8.328;2023-01-15T12:20:18;1.07;;;0.87;;
7031;SDS011;3557;48.880;8.328;2023-01-15T12:22:53;0.50;;;0.50;;
7031;SDS011;3557;48.880;8.328;2023-01-15T12:25:37;1.03;;;0.40;;
7031;SDS011;3557;48.880;8.328;2023-01-15T12:28:11;0.60;;;0.57;;
7031;SDS011;3557;48.880;8.328;2023-01-15T12:30:43;0.70;;;0.70;;
7031;SDS011;3557;48.880;8.328;2023-01-15T12:33:20;1.53;;;1.30;;
7031;SDS011;3557;48.880;8.328;2023-01-15T12:36:00;2.33;;;1.50;;
7031;SDS011;3557;48.880;8.328;2023-01-15T12:38:36;4.93;;;2.50;;
7031;SDS011;3557;48.880;8.328;2023-01-15T12:41:13;2.80;;;1.77;;
7031;SDS011;3557;48.880;8.328;2023-01-15T12:43:43;1.60;;;1.30;;
7031;SDS011;3557;48.880;8.328;2023-01-15T12:46:34;1.27;;;1.10;;
7031;SDS011;3557;48.880;8.328;2023-01-15T12:49:08;1.03;;;1.00;;
7031;SDS011;3557;48.880;8.328;2023-01-15T12:51:45;1.57;;;0.90;;
7031;SDS011;3557;48.880;8.328;2023-01-15T12:54:20;0.90;;;0.90;;
7031;SDS011;3557;48.880;8.328;2023-01-15T12:56:56;0.77;;;0.77;;
7031;SDS011;3557;48.880;8.328;2023-01-15T12:59:27;0.87;;;0.87;;
7031;SDS011;3557;48.880;8.328;2023-01-15T13:02:02;0.97;;;0.70;;
7031;SDS011;3557;48.880;8.328;2023-01-15T13:04:40;1.03;;;0.80;;
7031;SDS011;3557;48.880;8.328;2023-01-15T13:07:13;1.07;;;0.93;;
7031;SDS011;3557;48.880;8.328;2023-01-15T13:09:47;1.00;;;1.00;;
7031;SDS011;3557;48.880;8.328;2023-01-15T13:12:22;2.40;;;1.23;;
7031;SDS011;3557;48.880;8.328;2023-01-15T13:14:50;2.33;;;0.83;;
7031;SDS011;3557;48.880;8.328;2023-01-15T13:17:21;1.27;;;1.00;;
7031;SDS011;3557;48.880;8.328;2023-01-15T13:20:02;2.17;;;1.10;;
7031;SDS011;3557;48.880;8.328;2023-01-15T13:22:42;0.73;;;0.70;;
7031;SDS011;3557;48.880;8.328;2023-01-15T13:25:28;0.97;;;0.80;;
7031;SDS011;3557;48.880;8.328;2023-01-15T13:28:15;0.50;;;0.50;;
7031;SDS011;3557;48.880;8.328;2023-01-15T13:30:59;0.40;;;0.40;;
7031;SDS011;3557;48.880;8.328;2023-01-15T13:33:36;1.67;;;0.87;;
7031;SDS011;3557;48.880;8.328;2023-01-15T13:36:09;1.20;;;0.80;;
7031;SDS011;3557;48.880;8.328;2023-01-15T13:38:39;0.70;;;0.70;;
7031;SDS011;3557;48.880;8.328;2023-01-15T13:41:11;1.17;;;0.50;;
7031;SDS011;3557;48.880;8.328;2023-01-15T13:44:10;1.27;;;0.63;;
7031;SDS011;3557;48.880;8.328;2023-01-15T13:46:43;1.37;;;0.50;;
7031;SDS011;3557;48.880;8.328;2023-01-15T13:49:16;1.23;;;0.53;;
7031;SDS011;3557;48.880;8.328;2023-01-15T13:51:45;3.17;;;0.87;;
7031;SDS011;3557;48.880;8.328;2023-01-15T13:54:14;1.73;;;0.90;;
7031;SDS011;3557;48.880;8.328;2023-01-15T13:56:44;2.27;;;0.83;;
7031;SDS011;3557;48.880;8.328;2023-01-15T13:59:33;2.10;;;0.80;;
7031;SDS011;3557;48.880;8.328;2023-01-15T14:02:21;0.57;;;0.57;;
7031;SDS011;3557;48.880;8.328;2023-01-15T14:04:51;1.20;;;0.93;;
7031;SDS011;3557;48.880;8.328;2023-01-15T14:07:19;1.10;;;0.77;;
7031;SDS011;3557;48.880;8.328;2023-01-15T14:10:08;0.83;;;0.60;;
7031;SDS011;3557;48.880;8.328;2023-01-15T14:12:48;2.43;;;0.97;;
7031;SDS011;3557;48.880;8.328;2023-01-15T14:15:28;2.00;;;0.87;;
7031;SDS011;3557;48.880;8.328;2023-01-15T14:18:13;2.47;;;1.40;;
7031;SDS011;3557;48.880;8.328;2023-01-15T14:21:22;2.40;;;0.90;;
7031;SDS011;3557;48.880;8.328;2023-01-15T14:27:11;1.43;;;0.80;;
7031;SDS011;3557;48.880;8.328;2023-01-15T14:32:43;1.83;;;0.90;;
7031;SDS011;3557;48.880;8.328;2023-01-15T14:35:22;0.60;;;0.57;;
7031;SDS011;3557;48.880;8.328;2023-01-15T14:37:52;0.57;;;0.50;;
7031;SDS011;3557;48.880;8.328;2023-01-15T14:40:22;3.37;;;0.70;;
7031;SDS011;3557;48.880;8.328;2023-01-15T14:42:51;2.07;;;1.30;;
7031;SDS011;3557;48.880;8.328;2023-01-15T14:45:27;1.33;;;0.80;;
7031;SDS011;3557;48.880;8.328;2023-01-15T14:47:59;1.33;;;0.83;;
7031;SDS011;3557;48.880;8.328;2023-01-15T14:50:29;1.70;;;1.13;;
7031;SDS011;3557;48.880;8.328;2023-01-15T14:53:16;2.87;;;1.40;;
7031;SDS011;3557;48.880;8.328;2023-01-15T14:55:54;2.10;;;1.07;;
7031;SDS011;3557;48.880;8.328;2023-01-15T14:58:29;2.33;;;1.33;;
7031;SDS011;3557;48.880;8.328;2023-01-15T15:01:10;2.10;;;1.30;;
7031;SDS011;3557;48.880;8.328;2023-01-15T15:04:04;3.00;;;1.70;;
7031;SDS011;3557;48.880;8.328;2023-01-15T15:06:44;1.63;;;1.50;;
7031;SDS011;3557;48.880;8.328;2023-01-15T15:09:18;1.33;;;1.10;;
7031;SDS011;3557;48.880;8.328;2023-01-15T15:12:02;3.20;;;1.60;;
7031;SDS011;3557;48.880;8.328;2023-01-15T15:14:47;1.40;;;1.10;;
7031;SDS011;3557;48.880;8.328;2023-01-15T15:17:31;2.03;;;1.33;;
7031;SDS011;3557;48.880;8.328;2023-01-15T15:20:14;2.13;;;1.40;;
7031;SDS011;3557;48.880;8.328;2023-01-15T15:22:48;1.73;;;1.20;;
7031;SDS011;3557;48.880;8.328;2023-01-15T15:25:22;1.93;;;1.20;;
7031;SDS011;3557;48.880;8.328;2023-01-15T15:28:02;1.03;;;1.00;;
7031;SDS011;3557;48.880;8.328;2023-01-15T15:30:31;1.27;;;1.17;;
7031;SDS011;3557;48.880;8.328;2023-01-15T15:33:02;1.17;;;1.07;;
7031;SDS011;3557;48.880;8.328;2023-01-15T15:35:32;2.23;;;0.93;;
7031;SDS011;3557;48.880;8.328;2023-01-15T15:38:01;3.47;;;1.33;;
7031;SDS011;3557;48.880;8.328;2023-01-15T15:40:31;1.17;;;1.03;;
7031;SDS011;3557;48.880;8.328;2023-01-15T15:43:02;1.20;;;1.10;;
7031;SDS011;3557;48.880;8.328;2023-01-15T15:45:54;3.40;;;1.20;;
7031;SDS011;3557;48.880;8.328;2023-01-15T15:48:40;3.77;;;1.63;;
7031;SDS011;3557;48.880;8.328;2023-01-15T15:51:24;1.70;;;1.00;;
7031;SDS011;3557;48.880;8.328;2023-01-15T15:54:03;1.60;;;1.10;;
7031;SDS011;3557;48.880;8.328;2023-01-15T15:56:36;1.23;;;1.10;;
7031;SDS011;3557;48.880;8.328;2023-01-15T15:59:05;1.80;;;1.20;;
7031;SDS011;3557;48.880;8.328;2023-01-15T16:01:36;2.57;;;1.23;;
7031;SDS011;3557;48.880;8.328;2023-01-15T16:04:24;2.80;;;1.10;;